Time;durP1;ratioP1;P1;durP2;ratioP2;P2;SDS_P1;SDS_P2;PMS_P1;PMS_P2;Temp;Humidity;BMP_temperature;BMP_pressure;BME280_temperature;BME280_humidity;BME280_pressure;Samples;Min_cycle;Max_cycle;Signal;HPM_P1;HPM_P2
2022/11/25 00:01:49;;;;;;;18.15;3.40;;;;;;;;;;5024996;28;20388;-75
2022/11/25 00:04:16;;;;;;;17.63;3.40;;;;;;;;;;5024436;28;20049;-74
2022/11/25 00:06:44;;;;;;;19.00;3.30;;;;;;;;;;5028007;28;20057;-74
2022/11/25 00:09:12;;;;;;;18.73;2.85;;;;;;;;;;5028631;28;20123;-74
2022/11/25 00:11:40;;;;;;;15.00;2.97;;;;;;;;;;5028724;28;20100;-74
2022/11/25 00:14:11;;;;;;;18.73;3.20;;;;;;;;;;5024285;28;20531;-74
2022/11/25 00:16:38;;;;;;;19.73;3.72;;;;;;;;;;5024378;28;20071;-74
2022/11/25 00:19:05;;;;;;;21.98;3.25;;;;;;;;;;5026887;28;20053;-74
2022/11/25 00:21:33;;;;;;;18.60;3.08;;;;;;;;;;5023940;28;20048;-74
2022/11/25 00:24:01;;;;;;;20.40;3.30;;;;;;;;;;5024674;28;20530;-74
2022/11/25 00:26:31;;;;;;;16.95;2.80;;;;;;;;;;5026593;28;20053;-74
2022/11/25 00:28:59;;;;;;;19.35;2.90;;;;;;;;;;5026216;28;20053;-74
2022/11/25 00:31:28;;;;;;;21.70;3.28;;;;;;;;;;5026986;28;20056;-74
2022/11/25 00:33:56;;;;;;;28.60;5.00;;;;;;;;;;5023432;28;20054;-74
2022/11/25 00:36:24;;;;;;;20.60;3.88;;;;;;;;;;5028812;28;20053;-75
2022/11/25 00:38:53;;;;;;;21.83;3.92;;;;;;;;;;5027982;28;20393;-74
2022/11/25 00:46:52;;;;;;;24.48;3.30;;;;;;;;;;5028857;28;20554;-74
2022/11/25 00:49:19;;;;;;;19.38;3.45;;;;;;;;;;5032706;28;20139;-74
2022/11/25 00:51:46;;;;;;;19.58;3.28;;;;;;;;;;5029338;28;20524;-74
2022/11/25 00:54:13;;;;;;;18.98;3.40;;;;;;;;;;5031705;28;20057;-74
2022/11/25 00:56:41;;;;;;;23.42;3.28;;;;;;;;;;5029514;28;20061;-75
2022/11/25 00:59:08;;;;;;;21.02;3.92;;;;;;;;;;5023794;28;20049;-74
2022/11/25 01:01:36;;;;;;;32.55;3.72;;;;;;;;;;5028961;28;20068;-75
2022/11/25 01:04:05;;;;;;;21.27;3.15;;;;;;;;;;5028287;28;20054;-74
2022/11/25 01:06:32;;;;;;;31.38;3.65;;;;;;;;;;5029445;28;20711;-74
2022/11/25 01:09:00;;;;;;;18.15;3.30;;;;;;;;;;5027934;28;20373;-74
2022/11/25 01:11:27;;;;;;;24.98;3.78;;;;;;;;;;5030022;28;20056;-75
2022/11/25 01:13:57;;;;;;;20.02;2.95;;;;;;;;;;5023370;28;20044;-74
2022/11/25 01:16:24;;;;;;;20.65;2.95;;;;;;;;;;5025494;28;20056;-75
2022/11/25 01:18:52;;;;;;;27.90;3.22;;;;;;;;;;5029086;28;20053;-74
2022/11/25 01:21:22;;;;;;;24.67;3.28;;;;;;;;;;5030694;28;20103;-74
2022/11/25 01:23:49;;;;;;;22.17;3.05;;;;;;;;;;5026857;28;20053;-74
2022/11/25 01:26:17;;;;;;;28.60;3.78;;;;;;;;;;5028148;28;20059;-74
2022/11/25 01:28:45;;;;;;;27.83;3.05;;;;;;;;;;5025950;28;20049;-74
2022/11/25 01:31:13;;;;;;;29.42;4.03;;;;;;;;;;5030722;28;20063;-74
2022/11/25 01:33:41;;;;;;;20.52;3.03;;;;;;;;;;5026526;28;20534;-74
2022/11/25 01:36:09;;;;;;;25.63;3.35;;;;;;;;;;5032049;28;20072;-74
2022/11/25 01:38:37;;;;;;;28.13;3.63;;;;;;;;;;5030763;28;20599;-73
2022/11/25 01:41:05;;;;;;;32.70;4.05;;;;;;;;;;5038621;28;20052;-74
2022/11/25 01:43:33;;;;;;;18.77;2.95;;;;;;;;;;5033773;28;20036;-74
2022/11/25 01:46:04;;;;;;;22.10;3.20;;;;;;;;;;5031711;28;20147;-74
2022/11/25 01:48:37;;;;;;;30.77;4.15;;;;;;;;;;5036803;28;20459;-74
2022/11/25 01:51:05;;;;;;;27.23;3.47;;;;;;;;;;5037110;28;20448;-74
2022/11/25 01:53:32;;;;;;;25.65;3.45;;;;;;;;;;5039165;28;20045;-74
2022/11/25 01:56:03;;;;;;;22.83;3.58;;;;;;;;;;5039835;28;20060;-74
2022/11/25 01:58:31;;;;;;;24.02;3.35;;;;;;;;;;5031341;28;20052;-74
2022/11/25 02:00:59;;;;;;;29.35;3.60;;;;;;;;;;5035031;28;20140;-74
2022/11/25 02:03:28;;;;;;;33.97;3.60;;;;;;;;;;5021795;28;20049;-73
2022/11/25 02:05:59;;;;;;;28.67;4.13;;;;;;;;;;5035438;28;20439;-74
2022/11/25 02:08:27;;;;;;;32.38;4.03;;;;;;;;;;5028940;28;20111;-74
2022/11/25 02:10:55;;;;;;;24.52;3.28;;;;;;;;;;5029900;28;20072;-74
2022/11/25 02:13:24;;;;;;;24.65;3.10;;;;;;;;;;5030820;28;20059;-74
2022/11/25 02:15:51;;;;;;;35.47;5.50;;;;;;;;;;5030926;28;20474;-73
2022/11/25 02:18:19;;;;;;;31.92;4.57;;;;;;;;;;5037908;28;20048;-73
2022/11/25 02:20:46;;;;;;;31.63;4.15;;;;;;;;;;5024591;28;21152;-74
2022/11/25 02:23:18;;;;;;;24.75;3.75;;;;;;;;;;5031858;28;20044;-73
2022/11/25 02:25:47;;;;;;;28.80;3.88;;;;;;;;;;5028237;28;20834;-74
2022/11/25 02:28:15;;;;;;;31.08;4.43;;;;;;;;;;5031689;28;20085;-74
2022/11/25 02:30:43;;;;;;;22.58;3.85;;;;;;;;;;5030646;28;20083;-74
2022/11/25 02:33:11;;;;;;;35.25;4.57;;;;;;;;;;5024349;28;20132;-75
2022/11/25 02:35:39;;;;;;;30.45;4.47;;;;;;;;;;5026241;28;20049;-75
2022/11/25 02:38:08;;;;;;;27.75;4.47;;;;;;;;;;5026651;28;20053;-75
2022/11/25 02:40:37;;;;;;;25.38;4.43;;;;;;;;;;5027378;28;20053;-76
2022/11/25 02:43:06;;;;;;;23.52;4.05;;;;;;;;;;5028535;28;20045;-76
2022/11/25 02:45:37;;;;;;;25.20;4.38;;;;;;;;;;5029829;28;20056;-76
2022/11/25 02:48:05;;;;;;;31.40;4.97;;;;;;;;;;5025636;28;20049;-76
2022/11/25 02:50:32;;;;;;;30.17;4.03;;;;;;;;;;5027095;28;20061;-77
2022/11/25 02:53:00;;;;;;;27.25;4.03;;;;;;;;;;5025860;28;20523;-76
2022/11/25 02:55:27;;;;;;;28.88;4.72;;;;;;;;;;5026248;28;20591;-78
2022/11/25 02:57:54;;;;;;;26.88;4.30;;;;;;;;;;5025248;28;20129;-77
2022/11/25 03:00:23;;;;;;;27.05;4.57;;;;;;;;;;5024801;28;20057;-78
2022/11/25 03:02:52;;;;;;;34.92;4.70;;;;;;;;;;5021087;28;20128;-76
2022/11/25 03:05:19;;;;;;;20.02;4.03;;;;;;;;;;5024725;28;20424;-76
2022/11/25 03:07:46;;;;;;;24.95;4.90;;;;;;;;;;5025674;28;20063;-77
2022/11/25 03:10:14;;;;;;;31.42;4.68;;;;;;;;;;5020871;28;20060;-76
2022/11/25 03:12:41;;;;;;;24.35;5.20;;;;;;;;;;5024444;28;20409;-77
2022/11/25 03:15:09;;;;;;;22.23;4.45;;;;;;;;;;5023156;28;20060;-78
2022/11/25 03:17:38;;;;;;;36.22;5.93;;;;;;;;;;5025032;28;20057;-78
2022/11/25 03:20:05;;;;;;;35.35;5.32;;;;;;;;;;5026030;28;20049;-77
2022/11/25 03:22:33;;;;;;;28.83;6.07;;;;;;;;;;5018151;28;20397;-76
2022/11/25 03:25:00;;;;;;;44.28;6.10;;;;;;;;;;5020748;28;20747;-78
2022/11/25 03:27:27;;;;;;;30.05;5.40;;;;;;;;;;5021793;28;20049;-78
2022/11/25 03:29:54;;;;;;;35.85;5.80;;;;;;;;;;5027847;28;20049;-78
2022/11/25 03:32:22;;;;;;;22.17;4.78;;;;;;;;;;5024105;28;20065;-77
2022/11/25 03:34:50;;;;;;;23.50;5.35;;;;;;;;;;5028849;28;20082;-76
2022/11/25 03:37:18;;;;;;;21.95;5.13;;;;;;;;;;5026474;28;20057;-76
2022/11/25 03:39:45;;;;;;;23.63;4.95;;;;;;;;;;5033216;28;20060;-76
2022/11/25 03:42:12;;;;;;;24.13;5.45;;;;;;;;;;5028092;28;20061;-77
2022/11/25 03:44:40;;;;;;;38.45;6.03;;;;;;;;;;5024220;28;20049;-77
2022/11/25 03:47:07;;;;;;;25.85;5.25;;;;;;;;;;5028196;28;20573;-77
2022/11/25 03:49:34;;;;;;;35.30;6.70;;;;;;;;;;5023815;28;20414;-77
2022/11/25 03:52:03;;;;;;;27.00;6.38;;;;;;;;;;5018318;28;20053;-76
2022/11/25 03:54:30;;;;;;;24.80;5.85;;;;;;;;;;5022989;28;20050;-77
2022/11/25 03:56:57;;;;;;;22.27;4.72;;;;;;;;;;5025636;28;20048;-76
2022/11/25 03:59:24;;;;;;;21.42;5.38;;;;;;;;;;5029984;28;20412;-76
2022/11/25 04:01:52;;;;;;;27.10;5.40;;;;;;;;;;5025398;28;20073;-77
2022/11/25 04:04:19;;;;;;;27.63;5.65;;;;;;;;;;5027324;28;20045;-76
2022/11/25 04:06:46;;;;;;;25.17;5.38;;;;;;;;;;5026365;28;20057;-76
2022/11/25 04:09:15;;;;;;;27.27;5.30;;;;;;;;;;5020815;28;20046;-76
2022/11/25 04:14:27;;;;;;;24.50;5.97;;;;;;;;;;5023859;28;20045;-77
2022/11/25 04:16:54;;;;;;;29.92;5.97;;;;;;;;;;5021406;28;20524;-76
2022/11/25 04:19:22;;;;;;;23.90;6.07;;;;;;;;;;5024272;28;20436;-79
2022/11/25 04:21:49;;;;;;;23.25;5.57;;;;;;;;;;5021122;28;20041;-77
2022/11/25 04:24:18;;;;;;;24.10;6.10;;;;;;;;;;5023952;28;20042;-76
2022/11/25 04:26:45;;;;;;;29.90;6.10;;;;;;;;;;5013551;28;20061;-77
2022/11/25 04:29:13;;;;;;;28.80;5.93;;;;;;;;;;5022577;28;20132;-78
2022/11/25 04:31:40;;;;;;;38.45;8.13;;;;;;;;;;5022021;28;20052;-76
2022/11/25 04:34:07;;;;;;;22.08;5.93;;;;;;;;;;5022704;28;20501;-77
2022/11/25 04:36:35;;;;;;;24.92;5.88;;;;;;;;;;5021563;28;20063;-76
2022/11/25 04:39:02;;;;;;;25.80;7.03;;;;;;;;;;5023746;28;20053;-77
2022/11/25 04:41:31;;;;;;;26.23;6.90;;;;;;;;;;5022248;28;20408;-77
2022/11/25 04:44:00;;;;;;;32.05;7.25;;;;;;;;;;5022292;28;20050;-76
2022/11/25 04:46:31;;;;;;;30.48;7.00;;;;;;;;;;5023465;28;20063;-77
2022/11/25 04:48:58;;;;;;;17.58;6.05;;;;;;;;;;5020311;28;20468;-78
2022/11/25 04:51:25;;;;;;;27.40;7.00;;;;;;;;;;5023202;28;20530;-76
2022/11/25 04:53:52;;;;;;;36.85;6.97;;;;;;;;;;5023282;28;20506;-77
2022/11/25 04:56:20;;;;;;;29.17;7.90;;;;;;;;;;5022999;28;20420;-77
2022/11/25 05:01:34;;;;;;;45.25;9.73;;;;;;;;;;5020115;28;20526;-77
2022/11/25 05:04:01;;;;;;;33.20;7.95;;;;;;;;;;5023767;28;20042;-76
2022/11/25 05:06:28;;;;;;;33.25;9.13;;;;;;;;;;5021266;28;20049;-77
2022/11/25 05:08:56;;;;;;;30.88;8.60;;;;;;;;;;5023472;28;20053;-76
2022/11/25 05:11:23;;;;;;;29.55;7.53;;;;;;;;;;5020218;28;20060;-76
2022/11/25 05:13:52;;;;;;;37.30;9.63;;;;;;;;;;5020469;28;20052;-77
2022/11/25 05:16:20;;;;;;;28.40;8.18;;;;;;;;;;5024880;28;20060;-77
2022/11/25 05:18:48;;;;;;;47.20;9.65;;;;;;;;;;5022986;28;20054;-76
2022/11/25 05:21:15;;;;;;;34.78;8.32;;;;;;;;;;5024433;28;20053;-77
2022/11/25 05:23:42;;;;;;;26.45;7.63;;;;;;;;;;5027586;28;20046;-76
2022/11/25 05:26:10;;;;;;;25.95;8.30;;;;;;;;;;5030281;28;20158;-78
2022/11/25 05:28:37;;;;;;;28.48;7.13;;;;;;;;;;5030117;28;20061;-77
2022/11/25 05:31:06;;;;;;;32.92;8.63;;;;;;;;;;5028816;28;20054;-77
2022/11/25 05:33:33;;;;;;;27.75;7.80;;;;;;;;;;5032469;28;20049;-76
2022/11/25 05:36:01;;;;;;;38.67;8.52;;;;;;;;;;5031960;28;20041;-77
2022/11/25 05:38:29;;;;;;;32.15;8.73;;;;;;;;;;5031385;28;20052;-76
2022/11/25 05:41:01;;;;;;;30.80;7.72;;;;;;;;;;5028449;28;20459;-78
2022/11/25 05:43:28;;;;;;;31.80;8.10;;;;;;;;;;5035184;28;20672;-77
2022/11/25 05:45:55;;;;;;;22.38;7.20;;;;;;;;;;5048691;28;20145;-76
2022/11/25 05:48:24;;;;;;;27.23;7.40;;;;;;;;;;5032335;28;20045;-76
2022/11/25 05:50:51;;;;;;;26.77;7.57;;;;;;;;;;5033537;28;20519;-76
2022/11/25 05:53:18;;;;;;;27.88;6.40;;;;;;;;;;5032581;28;20046;-77
2022/11/25 05:55:54;;;;;;;31.98;7.35;;;;;;;;;;5032569;28;20056;-77
2022/11/25 05:58:21;;;;;;;33.03;7.95;;;;;;;;;;5030816;28;20045;-77
2022/11/25 06:00:48;;;;;;;35.95;8.38;;;;;;;;;;5032118;28;20069;-76
2022/11/25 06:03:15;;;;;;;27.77;7.05;;;;;;;;;;5025116;28;20049;-76
2022/11/25 06:05:44;;;;;;;30.20;7.25;;;;;;;;;;5029020;28;20052;-77
2022/11/25 06:08:12;;;;;;;29.45;8.25;;;;;;;;;;5029474;28;20583;-76
2022/11/25 06:10:39;;;;;;;27.85;6.70;;;;;;;;;;5030244;28;20404;-76
2022/11/25 06:13:07;;;;;;;23.02;6.22;;;;;;;;;;5028171;28;20110;-76
2022/11/25 06:15:34;;;;;;;25.33;6.20;;;;;;;;;;5032072;28;20045;-77
2022/11/25 06:18:01;;;;;;;28.98;6.57;;;;;;;;;;5028685;28;20045;-76
2022/11/25 06:20:28;;;;;;;29.23;6.00;;;;;;;;;;5029276;28;20401;-76
2022/11/25 06:22:58;;;;;;;28.80;7.07;;;;;;;;;;5030268;28;20051;-76
2022/11/25 06:25:25;;;;;;;23.25;6.93;;;;;;;;;;5030983;28;20052;-76
2022/11/25 06:27:53;;;;;;;26.05;6.80;;;;;;;;;;5027569;28;20056;-77
2022/11/25 06:30:20;;;;;;;29.77;7.45;;;;;;;;;;5027607;28;20061;-76
2022/11/25 06:32:48;;;;;;;29.80;7.32;;;;;;;;;;5032380;28;20062;-77
2022/11/25 06:35:15;;;;;;;25.38;6.75;;;;;;;;;;5024353;28;20049;-76
2022/11/25 06:37:42;;;;;;;24.77;6.70;;;;;;;;;;5023756;28;20060;-77
2022/11/25 06:40:11;;;;;;;22.40;6.28;;;;;;;;;;5019469;28;20052;-77
2022/11/25 06:42:39;;;;;;;20.10;6.15;;;;;;;;;;5032119;28;20044;-77
2022/11/25 06:45:07;;;;;;;18.88;5.85;;;;;;;;;;5035146;28;20055;-77
2022/11/25 06:47:34;;;;;;;24.52;6.18;;;;;;;;;;5032229;28;20053;-76
2022/11/25 06:50:02;;;;;;;23.35;6.65;;;;;;;;;;5028255;28;20056;-78
2022/11/25 06:52:30;;;;;;;31.13;7.00;;;;;;;;;;5030171;28;20053;-77
2022/11/25 06:54:58;;;;;;;29.55;6.35;;;;;;;;;;5027452;28;20149;-77
2022/11/25 06:57:26;;;;;;;22.80;6.00;;;;;;;;;;5027374;28;20052;-78
2022/11/25 06:59:53;;;;;;;22.05;5.57;;;;;;;;;;5020696;28;20073;-76
2022/11/25 07:02:21;;;;;;;25.42;6.53;;;;;;;;;;5025897;28;20053;-76
2022/11/25 07:04:48;;;;;;;22.25;6.35;;;;;;;;;;5022626;28;20590;-76
2022/11/25 07:07:15;;;;;;;20.77;6.10;;;;;;;;;;5028843;28;20078;-77
2022/11/25 07:09:43;;;;;;;20.95;6.47;;;;;;;;;;5031282;28;20049;-77
2022/11/25 07:12:11;;;;;;;20.85;6.00;;;;;;;;;;5027121;28;20052;-77
2022/11/25 07:14:39;;;;;;;21.30;6.65;;;;;;;;;;5030889;28;20133;-77
2022/11/25 07:17:07;;;;;;;21.58;6.05;;;;;;;;;;5032947;28;20076;-77
2022/11/25 07:19:34;;;;;;;22.17;6.43;;;;;;;;;;5028666;28;20044;-77
2022/11/25 07:22:02;;;;;;;16.55;6.18;;;;;;;;;;5030529;28;20076;-77
2022/11/25 07:24:29;;;;;;;15.43;5.70;;;;;;;;;;5029432;28;20044;-76
2022/11/25 07:26:56;;;;;;;24.38;6.10;;;;;;;;;;5023306;28;20060;-77
2022/11/25 07:29:23;;;;;;;25.30;6.47;;;;;;;;;;5025161;28;20057;-76
2022/11/25 07:31:52;;;;;;;18.27;6.05;;;;;;;;;;5020017;28;20049;-77
2022/11/25 07:34:20;;;;;;;15.10;6.47;;;;;;;;;;5025293;28;20174;-77
2022/11/25 07:36:48;;;;;;;18.55;6.85;;;;;;;;;;5022106;28;20076;-76
2022/11/25 07:39:17;;;;;;;17.52;6.25;;;;;;;;;;5028960;28;20047;-76
2022/11/25 07:41:44;;;;;;;14.85;6.80;;;;;;;;;;5040552;28;20496;-75
2022/11/25 07:44:12;;;;;;;21.15;7.05;;;;;;;;;;5025159;28;20124;-77
2022/11/25 07:46:41;;;;;;;26.23;7.53;;;;;;;;;;5020161;28;20049;-76
2022/11/25 07:49:11;;;;;;;23.65;6.43;;;;;;;;;;5023474;28;20056;-76
2022/11/25 07:51:40;;;;;;;17.83;6.82;;;;;;;;;;5020968;28;20053;-78
2022/11/25 07:54:08;;;;;;;19.52;7.43;;;;;;;;;;5019450;28;20048;-79
2022/11/25 07:56:36;;;;;;;21.52;6.93;;;;;;;;;;5022741;28;20144;-79
2022/11/25 07:59:04;;;;;;;26.88;7.70;;;;;;;;;;5023698;28;20052;-79
2022/11/25 08:01:31;;;;;;;23.35;7.53;;;;;;;;;;5018696;28;20459;-79
2022/11/25 08:03:58;;;;;;;24.10;7.13;;;;;;;;;;5017831;28;20045;-79
2022/11/25 08:06:28;;;;;;;21.42;7.15;;;;;;;;;;5019768;28;20057;-77
2022/11/25 08:09:04;;;;;;;21.92;7.30;;;;;;;;;;5025720;28;20068;-77
2022/11/25 08:11:32;;;;;;;20.17;7.15;;;;;;;;;;5017765;28;20045;-77
2022/11/25 08:13:59;;;;;;;22.23;8.57;;;;;;;;;;5019773;28;20495;-76
2022/11/25 08:16:29;;;;;;;27.08;7.55;;;;;;;;;;5026217;28;20057;-77
2022/11/25 08:18:57;;;;;;;19.85;7.07;;;;;;;;;;5021323;28;20111;-77
2022/11/25 08:21:26;;;;;;;22.05;7.60;;;;;;;;;;5025232;28;20053;-77
2022/11/25 08:23:54;;;;;;;24.73;7.82;;;;;;;;;;5027955;28;20055;-77
2022/11/25 08:26:22;;;;;;;20.65;6.68;;;;;;;;;;5025938;28;20477;-77
2022/11/25 08:28:49;;;;;;;19.42;7.30;;;;;;;;;;5023004;28;20053;-77
2022/11/25 08:31:17;;;;;;;24.98;6.80;;;;;;;;;;5026809;28;20068;-77
2022/11/25 08:33:45;;;;;;;24.65;7.03;;;;;;;;;;5025898;28;20049;-77
2022/11/25 08:36:12;;;;;;;16.85;6.75;;;;;;;;;;5024740;28;20603;-77
2022/11/25 08:38:41;;;;;;;17.20;6.53;;;;;;;;;;5027511;28;20487;-77
2022/11/25 08:41:12;;;;;;;17.98;6.10;;;;;;;;;;5027607;28;20722;-77
2022/11/25 08:43:40;;;;;;;24.42;6.97;;;;;;;;;;5027493;28;20110;-77
2022/11/25 08:46:12;;;;;;;17.70;6.38;;;;;;;;;;5028542;28;20052;-77
2022/11/25 08:48:39;;;;;;;20.83;6.88;;;;;;;;;;5028292;28;20053;-77
2022/11/25 08:51:09;;;;;;;17.92;7.50;;;;;;;;;;5026440;28;20103;-76
2022/11/25 08:53:37;;;;;;;18.48;6.40;;;;;;;;;;5015229;28;20057;-77
2022/11/25 08:56:07;;;;;;;19.30;6.63;;;;;;;;;;5024135;28;20385;-77
2022/11/25 08:58:34;;;;;;;16.27;6.15;;;;;;;;;;5023935;28;20165;-77
2022/11/25 09:01:02;;;;;;;18.63;6.75;;;;;;;;;;5027825;28;20049;-77
2022/11/25 09:03:32;;;;;;;20.20;6.20;;;;;;;;;;5026052;28;20080;-77
2022/11/25 09:06:00;;;;;;;14.07;5.28;;;;;;;;;;5028102;28;20042;-78
2022/11/25 09:08:27;;;;;;;13.73;5.97;;;;;;;;;;5029472;28;20056;-77
2022/11/25 09:10:54;;;;;;;18.50;5.32;;;;;;;;;;5030353;28;20613;-77
2022/11/25 09:13:23;;;;;;;16.27;6.50;;;;;;;;;;5031975;28;20684;-77
2022/11/25 09:15:51;;;;;;;17.85;6.05;;;;;;;;;;5025452;28;20463;-77
2022/11/25 09:18:19;;;;;;;12.20;5.18;;;;;;;;;;5029937;28;20048;-77
2022/11/25 09:20:47;;;;;;;13.55;5.40;;;;;;;;;;5027784;28;20057;-78
2022/11/25 09:23:14;;;;;;;14.63;5.60;;;;;;;;;;5031623;28;20559;-78
2022/11/25 09:25:41;;;;;;;12.90;5.15;;;;;;;;;;5028294;28;20053;-76
2022/11/25 09:28:10;;;;;;;21.13;5.60;;;;;;;;;;5024348;28;20052;-77
2022/11/25 09:30:39;;;;;;;10.77;4.88;;;;;;;;;;5022595;28;20633;-77
2022/11/25 09:33:06;;;;;;;16.00;5.18;;;;;;;;;;5031531;28;20056;-77
2022/11/25 09:35:33;;;;;;;16.02;5.00;;;;;;;;;;5029143;28;20133;-76
2022/11/25 09:38:00;;;;;;;19.40;5.35;;;;;;;;;;5035217;28;20051;-76
2022/11/25 09:40:31;;;;;;;16.27;5.00;;;;;;;;;;5027203;28;20411;-78
2022/11/25 09:48:46;;;;;;;19.30;4.70;;;;;;;;;;5027969;28;20056;-76
2022/11/25 09:51:16;;;;;;;13.23;4.10;;;;;;;;;;5031573;28;20048;-76
2022/11/25 09:53:44;;;;;;;17.08;4.47;;;;;;;;;;5031080;28;20524;-77
2022/11/25 09:56:14;;;;;;;15.20;4.05;;;;;;;;;;5030420;28;20049;-78
2022/11/25 09:58:45;;;;;;;12.55;4.13;;;;;;;;;;5028713;28;20503;-77
2022/11/25 10:01:17;;;;;;;14.98;4.35;;;;;;;;;;5031385;28;20045;-77
2022/11/25 10:03:46;;;;;;;20.55;4.50;;;;;;;;;;5030234;28;20062;-76
2022/11/25 10:06:15;;;;;;;11.32;3.72;;;;;;;;;;5031741;28;20503;-77
2022/11/25 10:08:44;;;;;;;16.30;4.10;;;;;;;;;;5035953;28;20556;-77
2022/11/25 10:11:19;;;;;;;18.48;4.30;;;;;;;;;;5025291;28;20079;-76
2022/11/25 10:13:51;;;;;;;11.52;3.58;;;;;;;;;;5030199;28;20056;-76
2022/11/25 10:16:25;;;;;;;14.23;4.50;;;;;;;;;;5027201;28;20059;-77
2022/11/25 10:18:54;;;;;;;16.10;3.97;;;;;;;;;;5028553;28;20063;-76
2022/11/25 10:21:22;;;;;;;12.77;3.40;;;;;;;;;;5032022;28;20052;-76
2022/11/25 10:23:49;;;;;;;16.30;3.50;;;;;;;;;;5032315;28;20715;-76
2022/11/25 10:26:17;;;;;;;10.57;3.30;;;;;;;;;;5027757;28;20775;-79
2022/11/25 10:28:50;;;;;;;11.50;3.83;;;;;;;;;;5031121;28;20053;-76
2022/11/25 10:31:18;;;;;;;;;;;;;;;;;;5024409;28;20092;-78
2022/11/25 10:33:48;;;;;;;12.18;3.47;;;;;;;;;;5031295;28;19928;-76
2022/11/25 10:36:17;;;;;;;14.60;3.58;;;;;;;;;;5030734;28;20049;-77
2022/11/25 10:38:56;;;;;;;18.80;3.70;;;;;;;;;;5044679;28;20060;-78
2022/11/25 10:41:25;;;;;;;15.00;3.70;;;;;;;;;;5028568;28;20045;-76
2022/11/25 10:43:52;;;;;;;15.77;3.22;;;;;;;;;;5031282;28;20171;-77
2022/11/25 10:46:25;;;;;;;14.23;3.50;;;;;;;;;;5028679;28;20064;-77
2022/11/25 10:49:00;;;;;;;20.90;3.97;;;;;;;;;;5029421;28;20435;-77
2022/11/25 10:51:34;;;;;;;12.52;3.20;;;;;;;;;;5024730;28;20409;-76
2022/11/25 10:54:15;;;;;;;16.42;3.55;;;;;;;;;;5027945;28;20057;-77
2022/11/25 10:56:44;;;;;;;19.23;3.30;;;;;;;;;;5044931;28;20055;-77
2022/11/25 10:59:15;;;;;;;23.17;3.75;;;;;;;;;;5025855;28;20063;-76
2022/11/25 11:01:43;;;;;;;14.13;3.50;;;;;;;;;;5023869;28;20049;-76
2022/11/25 11:04:16;;;;;;;16.23;3.35;;;;;;;;;;5024063;28;20049;-80
2022/11/25 11:06:44;;;;;;;18.00;3.00;;;;;;;;;;5024842;28;20129;-76
2022/11/25 11:09:26;;;;;;;19.30;3.38;;;;;;;;;;5026430;28;20419;-77
2022/11/25 11:11:53;;;;;;;24.48;3.58;;;;;;;;;;5026517;28;20697;-79
2022/11/25 11:14:21;;;;;;;12.45;2.88;;;;;;;;;;5020368;28;20044;-76
2022/11/25 11:16:52;;;;;;;21.83;3.35;;;;;;;;;;5024602;28;20707;-77
2022/11/25 11:19:25;;;;;;;17.67;2.72;;;;;;;;;;5027549;28;20764;-77
2022/11/25 11:21:52;;;;;;;14.30;3.40;;;;;;;;;;5026228;28;20447;-76
2022/11/25 11:24:25;;;;;;;17.17;3.47;;;;;;;;;;5030691;28;20068;-76
2022/11/25 11:27:02;;;;;;;13.00;2.85;;;;;;;;;;5026643;28;20055;-77
2022/11/25 11:29:29;;;;;;;17.60;3.03;;;;;;;;;;5026022;28;20799;-76
2022/11/25 11:31:58;;;;;;;18.50;3.05;;;;;;;;;;5026118;28;20057;-76
2022/11/25 11:34:37;;;;;;;16.08;3.30;;;;;;;;;;5026788;28;20110;-76
2022/11/25 11:37:16;;;;;;;17.73;3.25;;;;;;;;;;5040263;28;20049;-76
2022/11/25 11:39:58;;;;;;;18.00;3.17;;;;;;;;;;5024842;28;20818;-76
2022/11/25 11:42:31;;;;;;;13.88;2.42;;;;;;;;;;5026558;28;20142;-76
2022/11/25 11:45:04;;;;;;;16.20;2.53;;;;;;;;;;5031060;28;20132;-77
2022/11/25 11:47:36;;;;;;;15.80;2.92;;;;;;;;;;5026986;28;20052;-78
2022/11/25 11:50:13;;;;;;;13.63;2.85;;;;;;;;;;5045760;28;20492;-77
2022/11/25 11:52:48;;;;;;;21.70;2.88;;;;;;;;;;5029578;28;20056;-76
2022/11/25 11:55:20;;;;;;;16.85;2.65;;;;;;;;;;5028078;28;20041;-76
2022/11/25 11:57:54;;;;;;;17.30;2.90;;;;;;;;;;5030906;28;20380;-76
2022/11/25 12:00:22;;;;;;;29.13;3.47;;;;;;;;;;5026087;28;20577;-76
2022/11/25 12:02:56;;;;;;;16.85;2.95;;;;;;;;;;5029376;28;20695;-76
2022/11/25 12:05:26;;;;;;;19.63;3.17;;;;;;;;;;5032097;28;20044;-76
2022/11/25 12:07:58;;;;;;;17.90;2.90;;;;;;;;;;5038583;28;20767;-76
2022/11/25 12:10:28;;;;;;;18.43;3.03;;;;;;;;;;5031364;28;20052;-76
2022/11/25 12:12:59;;;;;;;17.60;3.25;;;;;;;;;;5025883;28;20144;-76
2022/11/25 12:15:34;;;;;;;26.95;2.97;;;;;;;;;;5032406;28;20064;-76
2022/11/25 12:18:03;;;;;;;23.10;3.53;;;;;;;;;;5027590;28;20052;-76
2022/11/25 12:20:37;;;;;;;27.20;3.05;;;;;;;;;;5027784;28;20052;-76
2022/11/25 12:23:06;;;;;;;27.30;3.83;;;;;;;;;;5028798;28;20161;-75
2022/11/25 12:25:36;;;;;;;17.95;2.85;;;;;;;;;;5021595;28;20056;-76
2022/11/25 12:28:07;;;;;;;15.85;2.38;;;;;;;;;;5030634;28;20064;-76
2022/11/25 12:30:35;;;;;;;15.52;2.45;;;;;;;;;;5022469;28;20052;-76
2022/11/25 12:33:06;;;;;;;27.08;3.67;;;;;;;;;;5028264;28;20056;-76
2022/11/25 12:35:43;;;;;;;19.10;3.13;;;;;;;;;;5032264;28;20053;-76
2022/11/25 12:38:15;;;;;;;19.08;3.00;;;;;;;;;;5032845;28;20420;-76
2022/11/25 12:40:46;;;;;;;15.98;2.17;;;;;;;;;;5033298;28;20528;-76
2022/11/25 12:43:26;;;;;;;23.60;3.00;;;;;;;;;;5020953;28;20044;-75
2022/11/25 12:45:59;;;;;;;15.63;2.35;;;;;;;;;;5029922;28;20044;-75
2022/11/25 12:48:26;;;;;;;26.73;3.58;;;;;;;;;;5027513;28;20512;-76
2022/11/25 12:50:59;;;;;;;23.60;2.42;;;;;;;;;;5030517;28;20055;-75
2022/11/25 12:53:31;;;;;;;21.77;2.42;;;;;;;;;;5029595;28;20057;-75
2022/11/25 12:56:00;;;;;;;20.95;2.85;;;;;;;;;;5032440;28;20100;-75
2022/11/25 12:58:43;;;;;;;17.77;2.45;;;;;;;;;;5031084;28;20147;-76
2022/11/25 13:01:21;;;;;;;21.85;4.00;;;;;;;;;;5030144;28;20049;-75
2022/11/25 13:04:14;;;;;;;25.13;3.03;;;;;;;;;;5034886;28;20070;-76
2022/11/25 13:06:48;;;;;;;22.00;2.92;;;;;;;;;;5027126;28;20040;-76
2022/11/25 13:09:23;;;;;;;22.45;3.13;;;;;;;;;;5036656;28;20084;-76
2022/11/25 13:11:58;;;;;;;20.88;2.88;;;;;;;;;;5030958;28;20059;-75
2022/11/25 13:14:28;;;;;;;19.48;2.63;;;;;;;;;;5020994;28;20598;-75
2022/11/25 13:16:55;;;;;;;17.80;2.53;;;;;;;;;;5020541;28;20106;-74
2022/11/25 13:19:23;;;;;;;26.90;2.97;;;;;;;;;;5019108;28;20144;-75
2022/11/25 13:21:59;;;;;;;26.35;3.83;;;;;;;;;;5021581;28;20053;-75
2022/11/25 13:24:28;;;;;;;23.00;2.92;;;;;;;;;;5027773;28;20099;-75
2022/11/25 13:26:55;;;;;;;20.45;2.97;;;;;;;;;;5031331;28;20045;-75
2022/11/25 13:29:41;;;;;;;19.52;3.00;;;;;;;;;;5030256;28;20057;-75
2022/11/25 13:32:24;;;;;;;20.73;3.35;;;;;;;;;;5027994;28;20053;-75
2022/11/25 13:34:51;;;;;;;23.83;3.40;;;;;;;;;;5028728;28;20443;-75
2022/11/25 13:37:33;;;;;;;27.55;3.20;;;;;;;;;;5024849;28;20041;-75
2022/11/25 13:40:15;;;;;;;22.92;3.45;;;;;;;;;;5045675;28;20057;-75
2022/11/25 13:42:45;;;;;;;37.00;3.50;;;;;;;;;;5029226;28;20068;-75
2022/11/25 13:45:25;;;;;;;24.13;3.65;;;;;;;;;;5025833;28;20049;-75
2022/11/25 13:47:53;;;;;;;29.23;4.63;;;;;;;;;;5029494;28;20060;-75
2022/11/25 13:50:23;;;;;;;23.30;3.17;;;;;;;;;;5027072;28;20053;-75
2022/11/25 13:52:57;;;;;;;22.02;3.10;;;;;;;;;;5028122;28;20045;-75
2022/11/25 13:55:27;;;;;;;25.02;3.40;;;;;;;;;;5025775;28;20052;-75
2022/11/25 13:58:18;;;;;;;25.25;4.07;;;;;;;;;;5027561;28;20053;-75
2022/11/25 14:01:03;;;;;;;22.65;2.72;;;;;;;;;;5003683;28;20046;-75
2022/11/25 14:03:51;;;;;;;24.65;3.20;;;;;;;;;;5027819;28;20587;-75
2022/11/25 14:06:53;;;;;;;19.95;3.03;;;;;;;;;;5021182;28;20045;-75
2022/11/25 14:09:28;;;;;;;21.00;3.15;;;;;;;;;;5032981;28;20057;-75
2022/11/25 14:12:03;;;;;;;27.13;3.15;;;;;;;;;;5029372;28;20055;-75
2022/11/25 14:14:40;;;;;;;20.35;3.33;;;;;;;;;;5028088;28;20072;-75
2022/11/25 14:17:15;;;;;;;20.73;3.65;;;;;;;;;;5024110;28;20170;-75
2022/11/25 14:19:59;;;;;;;25.55;4.00;;;;;;;;;;5030958;28;20063;-76
2022/11/25 14:22:34;;;;;;;23.10;4.20;;;;;;;;;;5030291;28;20048;-75
2022/11/25 14:25:06;;;;;;;21.52;3.17;;;;;;;;;;5027358;28;20507;-75
2022/11/25 14:27:36;;;;;;;21.58;3.28;;;;;;;;;;5025639;28;20041;-75
2022/11/25 14:30:05;;;;;;;20.25;3.70;;;;;;;;;;5023795;28;20133;-75
2022/11/25 14:32:35;;;;;;;26.60;4.82;;;;;;;;;;5029429;28;20057;-75
2022/11/25 14:35:05;;;;;;;23.63;3.70;;;;;;;;;;5028943;28;20049;-75
2022/11/25 14:37:37;;;;;;;18.25;3.95;;;;;;;;;;5024899;28;20128;-75
2022/11/25 14:40:08;;;;;;;24.90;3.40;;;;;;;;;;5028918;28;20053;-75
2022/11/25 14:42:37;;;;;;;27.08;2.70;;;;;;;;;;5028109;28;20048;-76
2022/11/25 14:45:20;;;;;;;20.08;2.83;;;;;;;;;;5028836;28;20057;-75
2022/11/25 14:47:47;;;;;;;24.58;3.17;;;;;;;;;;5030012;28;20057;-75
2022/11/25 14:50:15;;;;;;;18.75;3.00;;;;;;;;;;5028330;28;20579;-75
2022/11/25 14:52:43;;;;;;;20.65;3.60;;;;;;;;;;5024324;28;20135;-76
2022/11/25 14:55:12;;;;;;;21.35;3.88;;;;;;;;;;5041840;28;20049;-75
2022/11/25 14:57:41;;;;;;;20.58;4.43;;;;;;;;;;5025602;28;20610;-77
2022/11/25 15:00:09;;;;;;;30.58;3.88;;;;;;;;;;5027982;28;20052;-83
2022/11/25 15:02:39;;;;;;;23.83;4.90;;;;;;;;;;5033141;28;20053;-82